createdAt,value
2023-01-15T00:02:32.044Z,97639.73
2023-01-15T00:05:05.214Z,97632.19
2023-01-15T00:07:37.856Z,97633.63
2023-01-15T00:10:12.451Z,97626.40
2023-01-15T00:12:44.758Z,97625.48
2023-01-15T00:15:17.334Z,97618.78
2023-01-15T00:17:49.675Z,97608.52
2023-01-15T00:20:23.026Z,97609.72
2023-01-15T00:22:55.867Z,97605.85
2023-01-15T00:25:45.731Z,97602.77
2023-01-15T00:28:18.188Z,97598.23
2023-01-15T00:30:51.557Z,97588.66
2023-01-15T00:33:24.148Z,97585.04
2023-01-15T00:35:57.415Z,97577.72
2023-01-15T00:38:29.875Z,97573.77
2023-01-15T00:41:03.600Z,97576.44
2023-01-15T00:43:38.566Z,97568.70
2023-01-15T00:46:12.280Z,97563.15
2023-01-15T00:48:44.779Z,97559.77
2023-01-15T00:51:17.397Z,97539.99
2023-01-15T00:53:49.764Z,97537.16
2023-01-15T00:56:22.238Z,97526.96
2023-01-15T00:58:55.224Z,97521.95
2023-01-15T01:01:27.895Z,97511.77
2023-01-15T01:04:02.864Z,97501.30
2023-01-15T01:06:35.327Z,97502.27
2023-01-15T01:09:07.701Z,97493.59
2023-01-15T01:11:40.043Z,97492.28
2023-01-15T01:14:15.682Z,97480.88
2023-01-15T01:16:48.585Z,97478.67
2023-01-15T01:19:23.523Z,97473.89
2023-01-15T01:21:58.532Z,97461.76
2023-01-15T01:24:35.103Z,97461.38
2023-01-15T01:27:08.418Z,97459.56
2023-01-15T01:29:43.824Z,97463.90
2023-01-15T01:32:19.251Z,97458.73
2023-01-15T01:34:54.011Z,97456.55
2023-01-15T01:37:26.625Z,97450.33
2023-01-15T01:39:59.019Z,97452.81
2023-01-15T01:42:31.522Z,97454.70
2023-01-15T01:45:15.959Z,97453.55
2023-01-15T01:47:49.088Z,97450.50
2023-01-15T01:50:21.737Z,97446.76
2023-01-15T01:53:00.782Z,97444.39
2023-01-15T01:55:35.979Z,97435.39
2023-01-15T01:58:12.097Z,97435.52
2023-01-15T02:00:50.164Z,97435.91
2023-01-15T02:03:24.999Z,97434.98
2023-01-15T02:06:00.986Z,97427.71
2023-01-15T02:08:35.121Z,97426.33
2023-01-15T02:11:08.735Z,97426.35
2023-01-15T02:13:42.767Z,97416.27
2023-01-15T02:16:21.141Z,97410.54
2023-01-15T02:19:02.114Z,97404.14
2023-01-15T02:21:52.010Z,97410.37
2023-01-15T02:24:37.587Z,97402.56
2023-01-15T02:27:21.938Z,97395.88
2023-01-15T02:30:00.616Z,97400.02
2023-01-15T02:32:41.154Z,97400.98
2023-01-15T02:35:19.708Z,97405.38
2023-01-15T02:37:56.527Z,97400.79
2023-01-15T02:40:29.732Z,97404.77
2023-01-15T02:43:02.410Z,97406.48
2023-01-15T02:45:38.436Z,97399.84
2023-01-15T02:48:17.854Z,97399.95
2023-01-15T02:50:55.940Z,97394.48
2023-01-15T02:53:31.660Z,97390.92
2023-01-15T02:56:09.097Z,97389.62
2023-01-15T02:58:48.538Z,97385.77
2023-01-15T03:01:26.582Z,97383.45
2023-01-15T03:04:09.972Z,97375.30
2023-01-15T03:06:49.863Z,97360.45
2023-01-15T03:09:23.341Z,97355.31
2023-01-15T03:12:02.512Z,97353.04
2023-01-15T03:14:43.341Z,97349.88
2023-01-15T03:17:21.445Z,97346.33
2023-01-15T03:19:59.410Z,97346.58
2023-01-15T03:22:35.620Z,97348.89
2023-01-15T03:25:12.656Z,97336.84
2023-01-15T03:27:49.735Z,97333.50
2023-01-15T03:30:22.733Z,97339.52
2023-01-15T03:32:56.488Z,97340.89
2023-01-15T03:35:49.209Z,97340.96
2023-01-15T03:38:33.742Z,97337.77
2023-01-15T03:41:20.417Z,97327.55
2023-01-15T03:44:07.355Z,97324.46
2023-01-15T03:46:51.407Z,97324.73
2023-01-15T03:49:36.526Z,97318.20
2023-01-15T03:52:21.308Z,97321.11
2023-01-15T03:55:05.215Z,97313.35
2023-01-15T03:57:42.790Z,97306.03
2023-01-15T04:00:24.834Z,97301.04
2023-01-15T04:03:00.721Z,97301.26
2023-01-15T04:05:38.294Z,97296.58
2023-01-15T04:08:15.321Z,97292.00
2023-01-15T04:10:58.340Z,97291.84
2023-01-15T04:13:34.480Z,97292.29
2023-01-15T04:16:08.083Z,97293.11
2023-01-15T04:18:41.532Z,97288.27
2023-01-15T04:21:14.241Z,97287.01
2023-01-15T04:23:47.312Z,97282.23
2023-01-15T04:26:19.983Z,97285.05
2023-01-15T04:28:52.465Z,97290.85
2023-01-15T04:31:24.825Z,97291.67
2023-01-15T04:33:57.037Z,97297.58
2023-01-15T04:36:29.283Z,97294.38
2023-01-15T04:39:01.552Z,97296.99
2023-01-15T04:41:51.357Z,97299.58
2023-01-15T04:44:27.648Z,97297.20
2023-01-15T04:47:02.174Z,97291.14
2023-01-15T04:49:34.882Z,97293.78
2023-01-15T04:52:07.739Z,97292.38
2023-01-15T04:54:40.031Z,97295.96
2023-01-15T04:57:14.276Z,97292.14
2023-01-15T04:59:47.023Z,97292.59
2023-01-15T05:02:19.676Z,97290.46
2023-01-15T05:04:52.173Z,97293.30
2023-01-15T05:07:24.652Z,97286.19
2023-01-15T05:09:57.156Z,97287.70
2023-01-15T05:12:29.530Z,97280.31
2023-01-15T05:15:01.885Z,97280.64
2023-01-15T05:17:34.899Z,97278.83
2023-01-15T05:20:08.903Z,97276.02
2023-01-15T05:22:41.361Z,97280.14
2023-01-15T05:25:14.118Z,97281.91
2023-01-15T05:27:48.918Z,97277.65
2023-01-15T05:30:21.756Z,97268.95
2023-01-15T05:32:54.149Z,97259.02
2023-01-15T05:35:26.505Z,97253.69
2023-01-15T05:37:58.969Z,97245.77
2023-01-15T05:40:31.652Z,97236.15
2023-01-15T05:43:04.144Z,97237.23
2023-01-15T05:45:38.623Z,97235.16
2023-01-15T05:48:11.053Z,97236.43
2023-01-15T05:50:43.503Z,97232.78
2023-01-15T05:53:15.981Z,97226.46
2023-01-15T05:55:48.353Z,97230.62
2023-01-15T05:58:20.765Z,97232.64
2023-01-15T06:01:01.555Z,97231.03
2023-01-15T06:03:34.107Z,97223.92
2023-01-15T06:06:07.457Z,97218.79
2023-01-15T06:08:39.866Z,97223.36
2023-01-15T06:11:13.040Z,97221.88
2023-01-15T06:13:45.462Z,97223.58
2023-01-15T06:16:18.686Z,97221.34
2023-01-15T06:18:51.229Z,97229.68
2023-01-15T06:21:23.635Z,97228.23
2023-01-15T06:23:57.394Z,97223.47
2023-01-15T06:26:30.919Z,97221.92
2023-01-15T06:29:03.547Z,97225.27
2023-01-15T06:31:36.108Z,97223.86
2023-01-15T06:34:11.133Z,97215.60
2023-01-15T06:36:46.827Z,97210.75
2023-01-15T06:39:19.681Z,97212.08
2023-01-15T06:42:09.473Z,97205.14
2023-01-15T06:44:59.468Z,97200.25
2023-01-15T06:47:32.179Z,97202.20
2023-01-15T06:50:04.672Z,97208.80
2023-01-15T06:52:39.367Z,97213.18
2023-01-15T06:55:13.081Z,97214.09
2023-01-15T06:57:45.616Z,97218.39
2023-01-15T07:00:19.466Z,97225.24
2023-01-15T07:02:51.799Z,97228.05
2023-01-15T07:05:24.339Z,97226.24
2023-01-15T07:07:57.073Z,97227.58
2023-01-15T07:10:29.583Z,97221.81
2023-01-15T07:13:02.190Z,97228.10
2023-01-15T07:15:35.136Z,97222.43
2023-01-15T07:18:09.356Z,97224.69
2023-01-15T07:20:41.991Z,97228.08
2023-01-15T07:23:16.673Z,97230.04
2023-01-15T07:25:51.358Z,97231.87
2023-01-15T07:28:24.790Z,97227.91
2023-01-15T07:31:01.220Z,97226.77
2023-01-15T07:33:33.929Z,97220.07
2023-01-15T07:36:07.644Z,97226.20
2023-01-15T07:38:40.228Z,97223.35
2023-01-15T07:41:32.046Z,97225.88
2023-01-15T07:44:21.801Z,97230.05
2023-01-15T07:47:14.771Z,97229.58
2023-01-15T07:49:48.596Z,97226.86
2023-01-15T07:52:24.356Z,97226.26
2023-01-15T07:55:01.229Z,97226.09
2023-01-15T07:57:34.954Z,97228.36
2023-01-15T08:00:17.255Z,97222.83
2023-01-15T08:02:50.939Z,97215.61
2023-01-15T08:05:27.210Z,97219.59
2023-01-15T08:08:06.639Z,97220.07
2023-01-15T08:10:58.831Z,97223.17
2023-01-15T08:13:51.507Z,97225.71
2023-01-15T08:16:23.972Z,97223.34
2023-01-15T08:18:56.848Z,97219.80
2023-01-15T08:21:32.190Z,97220.63
2023-01-15T08:24:08.702Z,97219.21
2023-01-15T08:26:43.162Z,97220.06
2023-01-15T08:29:15.540Z,97217.98
2023-01-15T08:31:47.990Z,97217.52
2023-01-15T08:34:20.495Z,97212.61
2023-01-15T08:36:57.209Z,97215.12
2023-01-15T08:39:33.670Z,97206.52
2023-01-15T08:42:06.641Z,97202.36
2023-01-15T08:44:40.528Z,97200.09
2023-01-15T08:47:28.842Z,97194.91
2023-01-15T08:50:01.833Z,97193.94
2023-01-15T08:52:44.260Z,97185.14
2023-01-15T08:55:24.735Z,97183.48
2023-01-15T08:57:57.147Z,97182.56
2023-01-15T09:00:30.407Z,97185.04
2023-01-15T09:03:02.812Z,97189.54
2023-01-15T09:05:37.760Z,97187.97
2023-01-15T09:08:15.865Z,97186.64
2023-01-15T09:10:48.523Z,97184.45
2023-01-15T09:13:21.130Z,97190.05
2023-01-15T09:15:53.633Z,97185.36
2023-01-15T09:18:26.190Z,97183.38
2023-01-15T09:21:01.743Z,97184.02
2023-01-15T09:23:34.118Z,97184.55
2023-01-15T09:26:08.936Z,97187.27
2023-01-15T09:28:41.270Z,97185.96
2023-01-15T09:31:16.320Z,97182.69
2023-01-15T09:33:48.651Z,97180.16
2023-01-15T09:36:23.957Z,97176.73
2023-01-15T09:38:59.642Z,97170.61
2023-01-15T09:42:09.040Z,97165.54
2023-01-15T09:45:16.269Z,97164.29
2023-01-15T09:48:10.182Z,97159.67
2023-01-15T09:50:56.885Z,97156.40
2023-01-15T09:53:45.451Z,97151.08
2023-01-15T09:56:36.701Z,97153.55
2023-01-15T09:59:31.005Z,97153.38
2023-01-15T10:02:14.947Z,97150.00
2023-01-15T10:04:56.930Z,97148.89
2023-01-15T10:07:38.825Z,97149.33
2023-01-15T10:10:20.061Z,97141.27
2023-01-15T10:13:06.603Z,97132.93
2023-01-15T10:15:48.611Z,97128.98
2023-01-15T10:18:26.407Z,97124.96
2023-01-15T10:21:26.079Z,97123.91
2023-01-15T10:24:08.319Z,97125.10
2023-01-15T10:26:53.951Z,97124.68
2023-01-15T10:29:38.698Z,97129.77
2023-01-15T10:32:25.280Z,97129.05
2023-01-15T10:35:22.213Z,97123.84
2023-01-15T10:38:00.338Z,97126.36
2023-01-15T10:41:17.972Z,97132.34
2023-01-15T10:43:55.946Z,97130.88
2023-01-15T10:46:38.654Z,97122.73
2023-01-15T10:49:16.840Z,97121.10
2023-01-15T10:51:54.765Z,97122.84
2023-01-15T10:54:34.407Z,97125.66
2023-01-15T10:57:15.464Z,97126.98
2023-01-15T10:59:53.827Z,97119.75
2023-01-15T11:02:33.466Z,97119.70
2023-01-15T11:05:07.617Z,97115.59
2023-01-15T11:08:10.487Z,97112.16
2023-01-15T11:10:43.525Z,97111.00
2023-01-15T11:13:45.413Z,97114.02
2023-01-15T11:16:39.067Z,97110.66
2023-01-15T11:19:39.836Z,97107.80
2023-01-15T11:22:18.881Z,97094.05
2023-01-15T11:24:59.995Z,97091.48
2023-01-15T11:27:34.345Z,97085.17
2023-01-15T11:30:24.383Z,97078.49
2023-01-15T11:33:01.040Z,97072.61
2023-01-15T11:35:35.047Z,97069.48
2023-01-15T11:38:15.418Z,97067.53
2023-01-15T11:40:59.618Z,97068.02
2023-01-15T11:43:52.839Z,97062.17
2023-01-15T11:46:47.889Z,97059.30
2023-01-15T11:49:42.444Z,97053.33
2023-01-15T11:52:19.112Z,97050.40
2023-01-15T11:54:54.274Z,97051.54
2023-01-15T11:57:32.429Z,97050.29
2023-01-15T12:00:10.241Z,97042.04
2023-01-15T12:02:46.901Z,97035.71
2023-01-15T12:05:25.270Z,97035.17
2023-01-15T12:07:59.427Z,97028.48
2023-01-15T12:10:58.679Z,97022.93
2023-01-15T12:13:40.762Z,97017.34
2023-01-15T12:16:29.791Z,97011.23
2023-01-15T12:19:15.828Z,97018.05
2023-01-15T12:22:07.498Z,97015.85
2023-01-15T12:24:52.193Z,97019.65
2023-01-15T12:27:53.644Z,97018.30
2023-01-15T12:30:37.906Z,97026.50
2023-01-15T12:33:23.680Z,97018.94
2023-01-15T12:36:02.112Z,97016.64
2023-01-15T12:38:47.603Z,97007.39
2023-01-15T12:41:26.781Z,96997.38
2023-01-15T12:44:18.657Z,96999.09
2023-01-15T12:46:51.572Z,96996.88
2023-01-15T12:49:33.318Z,96986.83
2023-01-15T12:52:12.226Z,96995.73
2023-01-15T12:55:00.144Z,96997.24
2023-01-15T12:57:40.017Z,96993.46
2023-01-15T13:00:19.846Z,96989.41
2023-01-15T13:03:07.134Z,96994.67
2023-01-15T13:05:47.914Z,96993.78
2023-01-15T13:08:28.702Z,96992.92
2023-01-15T13:10:59.402Z,96995.83
2023-01-15T13:13:40.241Z,96996.86
2023-01-15T13:16:21.045Z,96997.09
2023-01-15T13:19:12.199Z,97001.23
2023-01-15T13:21:52.127Z,97004.18
2023-01-15T13:24:54.941Z,97008.77
2023-01-15T13:27:58.192Z,97016.45
2023-01-15T13:30:56.285Z,97019.30
2023-01-15T13:33:49.241Z,97021.44
2023-01-15T13:36:35.492Z,97026.77
2023-01-15T13:39:19.657Z,97033.75
2023-01-15T13:42:13.007Z,97032.06
2023-01-15T13:44:54.191Z,97028.33
2023-01-15T13:47:29.299Z,97028.79
2023-01-15T13:50:07.289Z,97031.38
2023-01-15T13:52:44.374Z,97034.16
2023-01-15T13:55:30.935Z,97038.21
2023-01-15T13:58:03.382Z,97032.42
2023-01-15T14:00:40.091Z,97033.51
2023-01-15T14:06:15.778Z,97032.79
2023-01-15T14:08:55.470Z,97033.70
2023-01-15T14:11:38.811Z,97029.71
2023-01-15T14:14:30.585Z,97027.02
2023-01-15T14:17:13.883Z,97025.76
2023-01-15T14:20:19.087Z,97031.30
2023-01-15T14:23:05.741Z,97037.41
2023-01-15T14:25:50.037Z,97048.07
2023-01-15T14:28:55.779Z,97047.98
2023-01-15T14:31:39.904Z,97056.55
2023-01-15T14:34:23.015Z,97053.14
2023-01-15T14:37:01.957Z,97049.13
2023-01-15T14:39:42.675Z,97046.39
2023-01-15T14:42:42.066Z,97039.66
2023-01-15T14:45:27.776Z,97044.68
2023-01-15T14:48:01.663Z,97045.28
2023-01-15T14:50:38.725Z,97044.39
2023-01-15T14:53:29.275Z,97041.79
2023-01-15T14:56:13.102Z,97045.92
2023-01-15T14:58:54.978Z,97045.58
2023-01-15T15:01:43.272Z,97044.00
2023-01-15T15:04:34.214Z,97042.73
2023-01-15T15:07:15.487Z,97042.64
2023-01-15T15:09:51.891Z,97043.39
2023-01-15T15:12:40.840Z,97046.27
2023-01-15T15:15:20.438Z,97052.44
2023-01-15T15:18:02.830Z,97051.60
2023-01-15T15:20:48.269Z,97055.02
2023-01-15T15:23:26.654Z,97061.13
2023-01-15T15:26:01.522Z,97063.16
2023-01-15T15:28:34.255Z,97066.21
2023-01-15T15:31:06.841Z,97068.23
2023-01-15T15:33:41.956Z,97070.66
2023-01-15T15:36:14.291Z,97077.70
2023-01-15T15:38:55.152Z,97078.77
2023-01-15T15:41:51.482Z,97071.64
2023-01-15T15:44:51.389Z,97073.60
2023-01-15T15:47:43.690Z,97079.89
2023-01-15T15:50:29.211Z,97093.52
2023-01-15T15:53:04.623Z,97111.84
2023-01-15T15:55:42.312Z,97130.52
2023-01-15T15:58:25.144Z,97129.75
2023-01-15T16:00:58.380Z,97137.96
2023-01-15T16:03:33.533Z,97138.11
2023-01-15T16:06:10.598Z,97141.55
2023-01-15T16:08:52.846Z,97142.41
2023-01-15T16:11:27.262Z,97145.79
2023-01-15T16:14:05.095Z,97155.45
2023-01-15T16:16:39.072Z,97163.69
2023-01-15T16:19:20.193Z,97170.34
2023-01-15T16:21:55.751Z,97177.88
2023-01-15T16:24:32.197Z,97182.85
2023-01-15T16:27:12.085Z,97188.79
2023-01-15T16:29:52.925Z,97201.48
2023-01-15T16:32:29.048Z,97206.17
2023-01-15T16:35:10.722Z,97208.91
2023-01-15T16:37:44.159Z,97218.54
2023-01-15T16:40:27.375Z,97231.62
2023-01-15T16:43:10.177Z,97241.84
2023-01-15T16:46:01.271Z,97254.14
2023-01-15T16:48:38.392Z,97260.86
2023-01-15T16:51:43.119Z,97265.15
2023-01-15T16:54:46.406Z,97274.11
2023-01-15T16:57:35.476Z,97277.04
2023-01-15T17:00:32.946Z,97278.56
2023-01-15T17:03:13.668Z,97286.54
2023-01-15T17:05:46.013Z,97287.52
2023-01-15T17:08:21.455Z,97295.53
2023-01-15T17:11:00.075Z,97302.33
2023-01-15T17:13:36.328Z,97308.41
2023-01-15T17:16:20.035Z,97312.02
2023-01-15T17:18:53.258Z,97316.98
2023-01-15T17:21:51.415Z,97318.92
2023-01-15T17:24:24.784Z,97321.71
2023-01-15T17:26:57.216Z,97324.44
2023-01-15T17:29:36.912Z,97331.59
2023-01-15T17:32:13.012Z,97339.27
2023-01-15T17:34:49.991Z,97342.05
2023-01-15T17:37:23.952Z,97344.66
2023-01-15T17:39:56.874Z,97345.24
2023-01-15T17:42:29.484Z,97347.77
2023-01-15T17:45:19.954Z,97349.35
2023-01-15T17:48:09.084Z,97364.73
2023-01-15T17:50:48.185Z,97366.90
2023-01-15T17:53:20.626Z,97364.84
2023-01-15T17:56:06.820Z,97362.63
2023-01-15T17:59:01.349Z,97364.08
2023-01-15T18:01:52.148Z,97366.83
2023-01-15T18:04:43.327Z,97371.09
2023-01-15T18:07:23.228Z,97369.26
2023-01-15T18:09:57.429Z,97365.00
2023-01-15T18:12:32.220Z,97368.84
2023-01-15T18:15:05.119Z,97369.95
2023-01-15T18:17:37.504Z,97376.94
2023-01-15T18:20:12.672Z,97373.91
2023-01-15T18:22:52.191Z,97374.01
2023-01-15T18:25:26.114Z,97374.83
2023-01-15T18:27:58.791Z,97378.73
2023-01-15T18:30:32.449Z,97384.17
2023-01-15T18:33:05.540Z,97388.17
2023-01-15T18:35:38.419Z,97391.64
2023-01-15T18:38:10.916Z,97393.06
2023-01-15T18:40:43.401Z,97391.30
2023-01-15T18:43:38.466Z,97392.43
2023-01-15T18:46:33.854Z,97386.13
2023-01-15T18:49:06.494Z,97370.41
2023-01-15T18:51:38.890Z,97368.56
2023-01-15T18:54:14.053Z,97370.85
2023-01-15T18:56:49.497Z,97374.91
2023-01-15T18:59:21.868Z,97376.94
2023-01-15T19:01:59.083Z,97375.05
2023-01-15T19:04:31.789Z,97378.55
2023-01-15T19:07:05.432Z,97383.89
2023-01-15T19:09:38.165Z,97380.67
2023-01-15T19:12:11.410Z,97378.19
2023-01-15T19:15:01.600Z,97373.69
2023-01-15T19:17:52.330Z,97381.56
2023-01-15T19:20:24.699Z,97386.73
2023-01-15T19:22:59.878Z,97381.35
2023-01-15T19:25:37.252Z,97373.69
2023-01-15T19:28:11.072Z,97378.27
2023-01-15T19:31:06.786Z,97380.39
2023-01-15T19:33:41.625Z,97378.84
2023-01-15T19:36:19.581Z,97375.60
2023-01-15T19:38:52.104Z,97382.71
2023-01-15T19:41:41.981Z,97381.75
2023-01-15T19:44:31.878Z,97383.34
2023-01-15T19:47:21.769Z,97383.13
2023-01-15T19:50:11.755Z,97386.36
2023-01-15T19:52:44.922Z,97384.17
2023-01-15T19:55:17.930Z,97387.23
2023-01-15T19:57:59.461Z,97396.30
2023-01-15T20:00:36.657Z,97398.17
2023-01-15T20:03:13.869Z,97400.81
2023-01-15T20:05:47.055Z,97398.70
2023-01-15T20:08:20.242Z,97398.15
2023-01-15T20:10:53.480Z,97396.02
2023-01-15T20:13:45.020Z,97396.86
2023-01-15T20:16:19.562Z,97398.83
2023-01-15T20:18:53.376Z,97395.55
2023-01-15T20:21:29.664Z,97401.47
2023-01-15T20:24:02.072Z,97406.21
2023-01-15T20:26:36.814Z,97401.55
2023-01-15T20:29:11.664Z,97397.67
2023-01-15T20:31:44.102Z,97394.98
2023-01-15T20:34:18.041Z,97393.29
2023-01-15T20:36:53.812Z,97394.43
2023-01-15T20:39:28.893Z,97395.45
2023-01-15T20:42:20.028Z,97393.47
2023-01-15T20:44:55.119Z,97395.28
2023-01-15T20:47:46.521Z,97394.56
2023-01-15T20:50:19.281Z,97386.48
2023-01-15T20:52:53.240Z,97386.42
2023-01-15T20:55:45.617Z,97386.71
2023-01-15T20:58:27.635Z,97385.64
2023-01-15T21:01:06.646Z,97387.14
2023-01-15T21:03:40.275Z,97389.19
2023-01-15T21:06:12.926Z,97388.02
2023-01-15T21:08:46.094Z,97384.61
2023-01-15T21:11:18.611Z,97387.45
2023-01-15T21:13:54.837Z,97391.56
2023-01-15T21:16:27.222Z,97383.55
2023-01-15T21:19:01.417Z,97384.66
2023-01-15T21:21:34.690Z,97385.76
2023-01-15T21:24:08.476Z,97387.66
2023-01-15T21:26:45.760Z,97385.32
2023-01-15T21:29:20.210Z,97388.35
2023-01-15T21:31:54.126Z,97390.11
2023-01-15T21:34:28.183Z,97388.28
2023-01-15T21:37:03.081Z,97389.05
2023-01-15T21:39:35.480Z,97389.05
2023-01-15T21:42:25.463Z,97393.08
2023-01-15T21:44:57.835Z,97393.70
2023-01-15T21:47:31.458Z,97393.98
2023-01-15T21:50:05.229Z,97389.46
2023-01-15T21:52:37.591Z,97389.11
2023-01-15T21:55:11.240Z,97385.91
2023-01-15T21:57:49.019Z,97384.85
2023-01-15T22:00:21.955Z,97388.30
2023-01-15T22:03:00.086Z,97386.02
2023-01-15T22:05:34.247Z,97384.13
2023-01-15T22:08:08.544Z,97384.92
2023-01-15T22:10:42.025Z,97386.64
2023-01-15T22:13:15.510Z,97384.42
2023-01-15T22:15:57.163Z,97385.95
2023-01-15T22:18:29.701Z,97388.14
2023-01-15T22:21:03.927Z,97383.48
2023-01-15T22:23:36.395Z,97381.34
2023-01-15T22:26:16.047Z,97376.71
2023-01-15T22:28:49.352Z,97372.55
2023-01-15T22:31:25.399Z,97369.73
2023-01-15T22:33:59.764Z,97368.52
2023-01-15T22:36:32.203Z,97372.20
2023-01-15T22:39:05.733Z,97372.47
2023-01-15T22:41:55.392Z,97372.70
2023-01-15T22:44:28.166Z,97373.45
2023-01-15T22:47:01.235Z,97380.09
2023-01-15T22:49:39.758Z,97381.99
2023-01-15T22:52:13.093Z,97376.54
2023-01-15T22:54:45.979Z,97374.42
2023-01-15T22:57:22.610Z,97380.23
2023-01-15T22:59:57.280Z,97381.46
2023-01-15T23:02:47.445Z,97375.94
2023-01-15T23:05:23.184Z,97374.64
2023-01-15T23:07:56.909Z,97374.61
2023-01-15T23:10:31.420Z,97365.01
2023-01-15T23:13:08.078Z,97359.60
2023-01-15T23:15:40.773Z,97366.20
2023-01-15T23:18:17.035Z,97367.51
2023-01-15T23:20:51.227Z,97365.27
2023-01-15T23:23:24.335Z,97359.98
2023-01-15T23:26:06.335Z,97362.36
2023-01-15T23:28:38.923Z,97358.79
2023-01-15T23:31:12.090Z,97361.33
2023-01-15T23:33:48.237Z,97362.52
2023-01-15T23:36:22.518Z,97366.42
2023-01-15T23:38:56.671Z,97369.67
2023-01-15T23:41:52.050Z,97371.48
2023-01-15T23:44:42.336Z,97363.52
2023-01-15T23:47:20.443Z,97361.43
2023-01-15T23:50:00.449Z,97357.27
2023-01-15T23:52:37.369Z,97359.80
2023-01-15T23:55:13.053Z,97360.20
2023-01-15T23:57:49.781Z,97361.23
